createdAt,value
2022-12-23T00:01:24.180Z,16.23
2022-12-23T00:03:52.824Z,13.43
2022-12-23T00:06:21.923Z,11.80
2022-12-23T00:08:57.932Z,15.43
2022-12-23T00:11:28.816Z,13.50
2022-12-23T00:14:20.690Z,12.82
2022-12-23T00:16:51.039Z,14.52
2022-12-23T00:19:19.408Z,14.07
2022-12-23T00:21:48.314Z,11.65
2022-12-23T00:24:16.443Z,13.88
2022-12-23T00:26:45.938Z,10.20
2022-12-23T00:29:14.114Z,13.13
2022-12-23T00:31:42.274Z,15.00
2022-12-23T00:34:11.820Z,13.57
2022-12-23T00:36:41.091Z,12.85
2022-12-23T00:39:29.843Z,12.55
2022-12-23T00:42:16.962Z,10.27
2022-12-23T00:44:45.213Z,11.63
2022-12-23T00:47:34.046Z,10.48
2022-12-23T00:50:01.086Z,11.38
2022-12-23T00:52:29.365Z,12.52
2022-12-23T00:54:57.439Z,10.63
2022-12-23T00:57:27.238Z,10.68
2022-12-23T00:59:55.353Z,10.60
2022-12-23T01:02:40.800Z,11.55
2022-12-23T01:05:37.403Z,12.38
2022-12-23T01:08:06.147Z,12.88
2022-12-23T01:10:35.896Z,10.55
2022-12-23T01:13:05.753Z,8.98
2022-12-23T01:15:34.600Z,11.73
2022-12-23T01:18:02.743Z,10.82
2022-12-23T01:20:30.877Z,10.65
2022-12-23T01:22:58.990Z,11.90
2022-12-23T01:25:27.073Z,10.13
2022-12-23T01:27:55.203Z,10.80
2022-12-23T01:30:24.710Z,11.63
2022-12-23T01:32:52.853Z,11.00
2022-12-23T01:35:20.991Z,10.23
2022-12-23T01:37:49.071Z,10.77
2022-12-23T01:40:17.320Z,10.80
2022-12-23T01:42:44.453Z,11.50
2022-12-23T01:45:18.484Z,13.35
2022-12-23T01:47:51.559Z,11.38
2022-12-23T01:50:25.021Z,15.27
2022-12-23T01:53:06.907Z,15.63
2022-12-23T01:55:39.753Z,13.93
2022-12-23T01:58:12.253Z,16.92
2022-12-23T02:00:59.726Z,13.50
2022-12-23T02:03:44.804Z,17.10
2022-12-23T02:06:37.237Z,12.73
2022-12-23T02:09:18.558Z,15.50
2022-12-23T02:12:10.512Z,13.75
2022-12-23T02:15:19.712Z,14.85
2022-12-23T02:17:57.102Z,15.57
2022-12-23T02:21:01.716Z,14.18
2022-12-23T02:24:04.714Z,15.05
2022-12-23T02:27:04.007Z,14.90
2022-12-23T02:29:53.625Z,16.90
2022-12-23T02:32:30.771Z,16.58
2022-12-23T02:35:05.214Z,17.38
2022-12-23T02:37:38.529Z,19.48
2022-12-23T02:40:14.162Z,18.08
2022-12-23T02:42:48.513Z,21.88
2022-12-23T02:45:24.631Z,16.77
2022-12-23T02:47:57.952Z,16.58
2022-12-23T02:50:30.591Z,16.98
2022-12-23T02:53:02.582Z,15.20
2022-12-23T02:55:34.924Z,18.48
2022-12-23T02:58:07.117Z,15.93
2022-12-23T03:00:35.859Z,16.08
2022-12-23T03:03:05.553Z,15.68
2022-12-23T03:05:39.060Z,19.45
2022-12-23T03:08:11.441Z,18.60
2022-12-23T03:10:56.292Z,18.30
2022-12-23T03:13:34.019Z,16.15
2022-12-23T03:16:13.412Z,16.30
2022-12-23T03:18:53.784Z,23.27
2022-12-23T03:21:29.256Z,21.02
2022-12-23T03:24:07.942Z,18.15
2022-12-23T03:26:41.470Z,17.92
2022-12-23T03:29:16.022Z,20.33
2022-12-23T03:31:45.401Z,20.95
2022-12-23T03:34:20.515Z,19.13
2022-12-23T03:36:51.492Z,19.08
2022-12-23T03:39:24.459Z,18.73
2022-12-23T03:41:57.418Z,17.92
2022-12-23T03:44:30.748Z,17.55
2022-12-23T03:47:05.969Z,18.70
2022-12-23T03:49:40.330Z,17.15
2022-12-23T03:52:18.888Z,20.23
2022-12-23T03:54:53.048Z,17.90
2022-12-23T03:57:23.068Z,18.55
2022-12-23T03:59:51.745Z,20.63
2022-12-23T04:02:25.614Z,17.83
2022-12-23T04:05:11.790Z,19.35
2022-12-23T04:07:42.970Z,15.57
2022-12-23T04:10:12.552Z,17.73
2022-12-23T04:12:41.388Z,18.10
2022-12-23T04:15:13.174Z,16.27
2022-12-23T04:17:41.773Z,19.30
2022-12-23T04:20:12.249Z,18.75
2022-12-23T04:22:43.613Z,18.85
2022-12-23T04:25:12.322Z,15.63
2022-12-23T04:27:40.509Z,16.42
2022-12-23T04:30:10.824Z,16.73
2022-12-23T04:32:39.605Z,19.52
2022-12-23T04:35:08.315Z,18.33
2022-12-23T04:37:37.959Z,19.13
2022-12-23T04:40:07.799Z,21.13
2022-12-23T04:42:36.192Z,16.23
2022-12-23T04:45:04.769Z,20.85
2022-12-23T04:47:32.889Z,16.98
2022-12-23T04:50:00.966Z,18.38
2022-12-23T04:52:29.253Z,19.63
2022-12-23T04:54:58.760Z,15.90
2022-12-23T04:57:26.900Z,17.60
2022-12-23T04:59:54.925Z,17.08
2022-12-23T05:02:23.113Z,18.92
2022-12-23T05:04:51.315Z,17.75
2022-12-23T05:07:19.646Z,16.77
2022-12-23T05:09:47.795Z,15.75
2022-12-23T05:12:17.262Z,17.20
2022-12-23T05:14:45.700Z,15.20
2022-12-23T05:17:14.038Z,15.73
2022-12-23T05:19:42.232Z,18.38
2022-12-23T05:22:10.354Z,19.63
2022-12-23T05:24:38.479Z,17.13
2022-12-23T05:27:06.896Z,22.92
2022-12-23T05:29:36.730Z,20.50
2022-12-23T05:32:05.207Z,20.08
2022-12-23T05:34:33.386Z,19.45
2022-12-23T05:37:01.437Z,19.77
2022-12-23T05:39:29.499Z,25.33
2022-12-23T05:41:57.565Z,19.83
2022-12-23T05:44:25.704Z,18.63
2022-12-23T05:46:55.196Z,25.20
2022-12-23T05:49:25.478Z,18.50
2022-12-23T05:51:53.611Z,19.80
2022-12-23T05:54:21.717Z,18.23
2022-12-23T05:56:49.791Z,25.23
2022-12-23T05:59:17.887Z,15.73
2022-12-23T06:01:46.151Z,15.07
2022-12-23T06:04:15.760Z,14.82
2022-12-23T06:06:43.900Z,18.35
2022-12-23T06:09:12.173Z,17.50
2022-12-23T06:11:40.326Z,16.05
2022-12-23T06:14:09.050Z,12.68
2022-12-23T06:16:37.203Z,14.50
2022-12-23T06:19:05.552Z,14.65
2022-12-23T06:21:35.058Z,14.02
2022-12-23T06:24:03.121Z,13.65
2022-12-23T06:26:31.413Z,12.85
2022-12-23T06:28:59.536Z,13.27
2022-12-23T06:31:27.772Z,13.73
2022-12-23T06:33:56.259Z,14.75
2022-12-23T06:36:24.394Z,12.35
2022-12-23T06:38:53.885Z,11.90
2022-12-23T06:41:22.179Z,12.98
2022-12-23T06:43:54.240Z,12.07
2022-12-23T06:46:23.179Z,10.93
2022-12-23T06:48:51.312Z,12.65
2022-12-23T06:51:19.400Z,13.32
2022-12-23T06:53:47.555Z,13.45
2022-12-23T06:56:17.062Z,12.15
2022-12-23T06:58:45.178Z,12.93
2022-12-23T07:01:13.827Z,15.10
2022-12-23T07:03:42.011Z,14.80
2022-12-23T07:06:10.370Z,13.85
2022-12-23T07:08:38.629Z,16.60
2022-12-23T07:11:06.864Z,15.95
2022-12-23T07:13:36.440Z,15.10
2022-12-23T07:16:07.468Z,17.83
2022-12-23T07:18:36.095Z,15.25
2022-12-23T07:21:05.058Z,14.00
2022-12-23T07:23:33.164Z,14.50
2022-12-23T07:26:01.289Z,16.52
2022-12-23T07:28:29.501Z,16.85
2022-12-23T07:30:59.171Z,17.25
2022-12-23T07:33:28.124Z,15.38
2022-12-23T07:35:59.756Z,16.10
2022-12-23T07:38:27.927Z,15.30
2022-12-23T07:40:56.024Z,21.20
2022-12-23T07:43:24.058Z,17.13
2022-12-23T07:45:59.238Z,14.75
2022-12-23T07:48:29.633Z,17.02
2022-12-23T07:51:02.161Z,15.82
2022-12-23T07:53:30.552Z,17.20
2022-12-23T07:55:58.765Z,19.38
2022-12-23T07:58:26.925Z,17.13
2022-12-23T08:01:01.202Z,18.00
2022-12-23T08:03:30.984Z,20.33
2022-12-23T08:06:03.247Z,18.35
2022-12-23T08:08:32.173Z,20.25
2022-12-23T08:11:01.191Z,20.17
2022-12-23T08:13:29.888Z,21.05
2022-12-23T08:15:58.716Z,21.85
2022-12-23T08:18:27.614Z,18.83
2022-12-23T08:20:58.588Z,21.67
2022-12-23T08:23:28.281Z,22.20
2022-12-23T08:26:04.466Z,23.20
2022-12-23T08:28:33.168Z,23.58
2022-12-23T08:31:06.557Z,21.38
2022-12-23T08:33:35.229Z,21.42
2022-12-23T08:36:06.268Z,23.27
2022-12-23T08:38:35.074Z,20.63
2022-12-23T08:41:03.344Z,24.40
2022-12-23T08:43:35.731Z,20.90
2022-12-23T08:46:04.420Z,23.77
2022-12-23T08:48:32.947Z,24.13
2022-12-23T08:51:06.198Z,26.63
2022-12-23T08:53:35.834Z,22.38
2022-12-23T08:56:05.005Z,26.50
2022-12-23T08:58:36.771Z,21.83
2022-12-23T09:01:05.959Z,22.00
2022-12-23T09:03:35.351Z,21.98
2022-12-23T09:06:07.523Z,21.90
2022-12-23T09:08:36.633Z,18.98
2022-12-23T09:11:05.187Z,19.58
2022-12-23T09:13:35.859Z,20.83
2022-12-23T09:16:04.491Z,21.67
2022-12-23T09:18:32.932Z,18.23
2022-12-23T09:21:02.564Z,20.02
2022-12-23T09:23:32.570Z,18.40
2022-12-23T09:26:00.796Z,19.00
2022-12-23T09:28:28.919Z,18.58
2022-12-23T09:30:57.194Z,18.73
2022-12-23T09:33:25.640Z,19.20
2022-12-23T09:35:53.920Z,20.33
2022-12-23T09:38:22.133Z,19.38
2022-12-23T09:40:51.670Z,18.98
2022-12-23T09:43:29.726Z,14.73
2022-12-23T09:46:07.432Z,18.42
2022-12-23T09:48:38.673Z,19.67
2022-12-23T09:51:08.143Z,18.10
2022-12-23T09:53:46.127Z,17.85
2022-12-23T09:56:23.719Z,15.38
2022-12-23T09:58:58.524Z,14.15
2022-12-23T10:01:33.962Z,15.05
2022-12-23T10:04:32.190Z,15.18
2022-12-23T10:07:37.743Z,15.35
2022-12-23T10:10:14.629Z,15.45
2022-12-23T10:12:48.266Z,14.35
2022-12-23T10:15:26.138Z,13.82
2022-12-23T10:17:58.009Z,14.07
2022-12-23T10:20:37.195Z,13.80
2022-12-23T10:23:07.342Z,11.93
2022-12-23T10:25:42.608Z,12.73
2022-12-23T10:28:12.291Z,14.05
2022-12-23T10:31:23.967Z,14.77
2022-12-23T10:33:40.641Z,12.95
2022-12-23T10:36:14.109Z,11.57
2022-12-23T10:38:55.034Z,13.45
2022-12-23T10:41:35.024Z,12.98
2022-12-23T10:44:28.850Z,11.63
2022-12-23T10:47:06.284Z,11.30
2022-12-23T10:49:44.443Z,12.98
2022-12-23T10:52:17.491Z,11.55
2022-12-23T10:54:47.934Z,13.30
2022-12-23T10:57:18.496Z,10.88
2022-12-23T10:59:48.620Z,12.02
2022-12-23T11:02:33.331Z,13.70
2022-12-23T11:05:02.001Z,10.80
2022-12-23T11:07:47.282Z,11.20
2022-12-23T11:10:21.027Z,9.85
2022-12-23T11:12:52.439Z,11.07
2022-12-23T11:15:32.752Z,13.00
2022-12-23T11:18:03.481Z,12.43
2022-12-23T11:20:32.285Z,10.48
2022-12-23T11:23:02.732Z,10.90
2022-12-23T11:25:37.327Z,11.77
2022-12-23T11:28:09.511Z,12.23
2022-12-23T11:30:55.504Z,9.85
2022-12-23T11:33:28.062Z,9.80
2022-12-23T11:36:05.298Z,12.45
2022-12-23T11:38:35.039Z,14.02
2022-12-23T11:41:04.163Z,14.40
2022-12-23T11:43:34.049Z,13.70
2022-12-23T11:46:27.420Z,14.02
2022-12-23T11:49:16.067Z,14.38
2022-12-23T11:51:45.028Z,14.48
2022-12-23T11:54:18.619Z,12.70
2022-12-23T11:56:51.207Z,14.13
2022-12-23T11:59:33.777Z,12.10
2022-12-23T12:02:12.915Z,13.77
2022-12-23T12:04:43.396Z,13.23
2022-12-23T12:07:15.786Z,12.35
2022-12-23T12:09:45.779Z,10.77
2022-12-23T12:12:19.237Z,11.25
2022-12-23T12:14:50.668Z,12.10
2022-12-23T12:17:24.497Z,11.60
2022-12-23T12:20:00.665Z,17.83
2022-12-23T12:22:38.692Z,10.07
2022-12-23T12:25:17.787Z,11.65
2022-12-23T12:27:51.004Z,11.30
2022-12-23T12:30:21.199Z,11.85
2022-12-23T12:32:57.857Z,10.02
2022-12-23T12:35:35.982Z,10.80
2022-12-23T12:38:11.707Z,8.93
2022-12-23T12:40:44.447Z,9.98
2022-12-23T12:43:21.948Z,8.77
2022-12-23T12:45:54.063Z,9.35
2022-12-23T12:48:37.541Z,9.32
2022-12-23T12:51:17.088Z,10.05
2022-12-23T12:54:06.326Z,9.27
2022-12-23T12:56:41.543Z,9.63
2022-12-23T12:59:17.566Z,10.10
2022-12-23T13:01:59.810Z,10.57
2022-12-23T13:04:53.896Z,8.90
2022-12-23T13:07:31.885Z,9.20
2022-12-23T13:10:04.965Z,8.52
2022-12-23T13:12:46.035Z,8.77
2022-12-23T13:15:22.243Z,8.93
2022-12-23T13:18:09.530Z,8.90
2022-12-23T13:20:44.348Z,10.20
2022-12-23T13:23:42.239Z,9.93
2022-12-23T13:26:15.202Z,11.25
2022-12-23T13:28:48.793Z,8.88
2022-12-23T13:31:29.394Z,10.90
2022-12-23T13:34:05.964Z,8.02
2022-12-23T13:36:46.376Z,10.95
2022-12-23T13:39:31.751Z,10.80
2022-12-23T13:42:05.775Z,10.63
2022-12-23T13:44:35.409Z,9.75
2022-12-23T13:47:11.972Z,10.60
2022-12-23T13:49:51.563Z,10.48
2022-12-23T13:52:29.893Z,13.05
2022-12-23T13:55:09.639Z,11.85
2022-12-23T13:57:48.751Z,10.95
2022-12-23T14:00:30.203Z,11.20
2022-12-23T14:03:20.327Z,11.98
2022-12-23T14:05:50.617Z,9.45
2022-12-23T14:08:28.223Z,10.45
2022-12-23T14:10:59.945Z,12.38
2022-12-23T14:13:31.303Z,9.30
2022-12-23T14:16:17.245Z,10.32
2022-12-23T14:19:07.203Z,10.73
2022-12-23T14:21:44.776Z,11.32
2022-12-23T14:24:34.320Z,12.32
2022-12-23T14:27:37.605Z,10.15
2022-12-23T14:30:14.198Z,10.10
2022-12-23T14:32:49.989Z,10.57
2022-12-23T14:35:29.442Z,11.50
2022-12-23T14:38:28.236Z,9.43
2022-12-23T14:41:01.019Z,11.80
2022-12-23T14:43:51.229Z,11.85
2022-12-23T14:46:57.976Z,11.73
2022-12-23T14:49:42.803Z,11.93
2022-12-23T14:52:50.085Z,9.48
2022-12-23T14:55:55.103Z,8.73
2022-12-23T14:59:08.322Z,9.32
2022-12-23T15:01:40.648Z,11.80
2022-12-23T15:04:16.923Z,12.32
2022-12-23T15:06:48.192Z,9.90
2022-12-23T15:09:26.196Z,9.48
2022-12-23T15:11:55.733Z,10.80
2022-12-23T15:14:33.585Z,8.77
2022-12-23T15:17:16.697Z,10.05
2022-12-23T15:19:47.028Z,8.43
2022-12-23T15:22:23.650Z,11.20
2022-12-23T15:24:56.579Z,9.73
2022-12-23T15:27:28.278Z,8.93
2022-12-23T15:29:59.127Z,10.52
2022-12-23T15:32:29.540Z,11.77
2022-12-23T15:35:03.588Z,10.10
2022-12-23T15:37:33.432Z,9.65
2022-12-23T15:40:12.105Z,10.98
2022-12-23T15:42:47.239Z,11.23
2022-12-23T15:45:36.360Z,10.85
2022-12-23T15:48:06.561Z,9.82
2022-12-23T15:50:40.544Z,11.38
2022-12-23T15:53:11.925Z,11.25
2022-12-23T15:55:41.805Z,13.32
2022-12-23T15:58:16.839Z,12.75
2022-12-23T16:00:54.559Z,16.15
2022-12-23T16:03:28.825Z,11.13
2022-12-23T16:06:11.209Z,12.00
2022-12-23T16:08:39.787Z,13.40
2022-12-23T16:11:15.498Z,12.57
2022-12-23T16:13:58.855Z,12.48
2022-12-23T16:16:39.689Z,12.07
2022-12-23T16:19:28.402Z,11.65
2022-12-23T16:21:56.633Z,14.68
2022-12-23T16:24:24.805Z,13.10
2022-12-23T16:26:56.242Z,11.57
2022-12-23T16:29:24.748Z,14.00
2022-12-23T16:32:01.645Z,15.52
2022-12-23T16:34:32.525Z,11.63
2022-12-23T16:37:00.619Z,12.93
2022-12-23T16:39:29.441Z,12.82
2022-12-23T16:41:57.635Z,14.35
2022-12-23T16:44:25.765Z,11.65
2022-12-23T16:46:55.295Z,12.20
2022-12-23T16:49:29.490Z,13.45
2022-12-23T16:52:01.443Z,11.23
2022-12-23T16:54:29.512Z,10.68
2022-12-23T16:56:58.076Z,11.48
2022-12-23T16:59:26.235Z,10.95
2022-12-23T17:02:03.089Z,10.63
2022-12-23T17:04:32.065Z,12.20
2022-12-23T17:07:00.261Z,10.57
2022-12-23T17:09:28.748Z,13.20
2022-12-23T17:11:57.372Z,12.07
2022-12-23T17:14:26.602Z,12.40
2022-12-23T17:16:56.168Z,12.38
2022-12-23T17:19:29.287Z,10.02
2022-12-23T17:22:01.834Z,13.43
2022-12-23T17:24:30.149Z,13.27
2022-12-23T17:26:58.773Z,11.10
2022-12-23T17:29:28.278Z,13.43
2022-12-23T17:31:58.200Z,15.10
2022-12-23T17:34:26.615Z,10.88
2022-12-23T17:36:54.861Z,11.23
2022-12-23T17:39:23.515Z,11.63
2022-12-23T17:41:51.973Z,11.10
2022-12-23T17:44:20.209Z,11.38
2022-12-23T17:46:48.925Z,11.88
2022-12-23T17:49:18.356Z,13.88
2022-12-23T17:51:46.559Z,11.45
2022-12-23T17:54:22.952Z,12.85
2022-12-23T17:56:51.459Z,13.98
2022-12-23T17:59:19.629Z,12.68
2022-12-23T18:01:48.062Z,10.50
2022-12-23T18:04:18.021Z,12.75
2022-12-23T18:06:46.203Z,12.98
2022-12-23T18:09:14.336Z,11.10
2022-12-23T18:11:45.751Z,10.07
2022-12-23T18:14:17.773Z,11.52
2022-12-23T18:16:46.364Z,11.10
2022-12-23T18:19:20.383Z,13.18
2022-12-23T18:21:48.918Z,16.23
2022-12-23T18:24:17.659Z,14.80
2022-12-23T18:26:46.238Z,15.27
2022-12-23T18:29:14.432Z,14.48
2022-12-23T18:31:51.523Z,31.10
2022-12-23T18:34:22.223Z,23.65
2022-12-23T18:36:51.694Z,23.00
2022-12-23T18:39:20.134Z,20.55
2022-12-23T18:41:48.354Z,18.10
2022-12-23T18:44:19.622Z,18.92
2022-12-23T18:46:48.236Z,52.33
2022-12-23T18:49:16.572Z,48.60
2022-12-23T18:51:46.218Z,21.73
2022-12-23T18:54:15.447Z,16.58
2022-12-23T18:56:44.149Z,16.15
2022-12-23T18:59:17.183Z,13.07
2022-12-23T19:01:45.717Z,14.23
2022-12-23T19:04:14.427Z,28.75
2022-12-23T19:06:42.904Z,27.40
2022-12-23T19:09:17.228Z,97.75
2022-12-23T19:11:48.040Z,22.15
2022-12-23T19:14:16.181Z,18.92
2022-12-23T19:16:50.953Z,16.10
2022-12-23T19:19:20.061Z,17.08
2022-12-23T19:21:48.340Z,20.40
2022-12-23T19:24:17.930Z,23.63
2022-12-23T19:26:46.068Z,17.27
2022-12-23T19:29:14.183Z,18.58
2022-12-23T19:31:42.603Z,18.52
2022-12-23T19:34:14.945Z,25.23
2022-12-23T19:36:44.194Z,24.42
2022-12-23T19:39:16.348Z,22.70
2022-12-23T19:41:46.783Z,24.15
2022-12-23T19:44:15.220Z,26.83
2022-12-23T19:46:43.432Z,28.15
2022-12-23T19:49:19.318Z,27.02
2022-12-23T19:51:48.861Z,31.95
2022-12-23T19:54:17.806Z,28.75
2022-12-23T19:56:47.639Z,26.48
2022-12-23T19:59:15.939Z,27.23
2022-12-23T20:01:44.305Z,25.27
2022-12-23T20:04:13.776Z,22.92
2022-12-23T20:06:43.184Z,29.35
2022-12-23T20:09:13.784Z,27.10
2022-12-23T20:11:44.127Z,31.13
2022-12-23T20:14:16.163Z,32.92
2022-12-23T20:16:44.829Z,31.00
2022-12-23T20:19:13.142Z,32.15
2022-12-23T20:21:41.495Z,31.45
2022-12-23T20:24:10.453Z,31.92
2022-12-23T20:26:38.936Z,33.53
2022-12-23T20:29:07.502Z,32.55
2022-12-23T20:31:38.801Z,29.98
2022-12-23T20:34:08.329Z,41.78
2022-12-23T20:36:37.697Z,38.13
2022-12-23T20:39:06.520Z,31.08
2022-12-23T20:41:35.216Z,41.83
2022-12-23T20:46:53.931Z,38.00
2022-12-23T20:49:22.529Z,38.15
2022-12-23T20:51:50.825Z,39.38
2022-12-23T20:54:19.031Z,37.03
2022-12-23T20:56:47.233Z,36.70
2022-12-23T20:59:15.594Z,49.80
2022-12-23T21:01:44.303Z,50.50
2022-12-23T21:04:16.566Z,43.50
2022-12-23T21:06:45.554Z,33.38
2022-12-23T21:09:15.678Z,50.75
2022-12-23T21:11:45.879Z,35.88
2022-12-23T21:14:15.217Z,36.63
2022-12-23T21:16:43.863Z,37.95
2022-12-23T21:19:18.390Z,42.35
2022-12-23T21:21:47.690Z,40.72
2022-12-23T21:24:16.655Z,34.17
2022-12-23T21:26:47.745Z,48.08
2022-12-23T21:29:20.378Z,50.47
2022-12-23T21:31:48.756Z,51.33
2022-12-23T21:34:18.397Z,55.90
2022-12-23T21:36:46.688Z,71.85
2022-12-23T21:39:17.183Z,44.90
2022-12-23T21:41:46.013Z,63.20
2022-12-23T21:44:15.674Z,61.67
2022-12-23T21:46:43.912Z,55.97
2022-12-23T21:49:12.613Z,84.88
2022-12-23T21:51:42.337Z,58.22
2022-12-23T21:54:11.631Z,55.97
2022-12-23T21:56:40.541Z,83.75
2022-12-23T21:59:11.380Z,60.92
2022-12-23T22:01:40.361Z,46.80
2022-12-23T22:04:08.786Z,35.70
2022-12-23T22:06:39.681Z,57.25
2022-12-23T22:09:12.021Z,60.47
2022-12-23T22:11:40.837Z,44.58
2022-12-23T22:14:11.661Z,57.38
2022-12-23T22:16:39.831Z,51.72
2022-12-23T22:19:09.272Z,58.80
2022-12-23T22:21:39.505Z,60.40
2022-12-23T22:24:10.274Z,53.97
2022-12-23T22:26:40.094Z,44.13
2022-12-23T22:29:08.741Z,65.97
2022-12-23T22:31:38.563Z,34.72
2022-12-23T22:34:07.958Z,47.63
2022-12-23T22:36:36.581Z,60.05
2022-12-23T22:39:07.555Z,56.15
2022-12-23T22:41:38.402Z,51.60
2022-12-23T22:44:06.737Z,39.00
2022-12-23T22:46:35.246Z,45.50
2022-12-23T22:49:03.721Z,61.38
2022-12-23T22:51:33.091Z,56.28
2022-12-23T22:54:04.068Z,44.17
2022-12-23T22:56:32.266Z,49.38
2022-12-23T22:59:01.909Z,51.75
2022-12-23T23:01:31.855Z,44.88
2022-12-23T23:04:02.038Z,41.15
2022-12-23T23:06:33.044Z,39.03
2022-12-23T23:09:01.692Z,37.70
2022-12-23T23:11:30.458Z,40.75
2022-12-23T23:13:58.782Z,36.85
2022-12-23T23:16:28.438Z,31.85
2022-12-23T23:18:57.869Z,32.78
2022-12-23T23:21:26.093Z,57.83
2022-12-23T23:23:54.766Z,45.55
2022-12-23T23:26:26.898Z,34.60
2022-12-23T23:28:55.121Z,38.00
2022-12-23T23:34:13.280Z,38.17
2022-12-23T23:36:41.680Z,36.40
2022-12-23T23:39:11.816Z,34.78
2022-12-23T23:41:40.922Z,25.10
2022-12-23T23:44:09.324Z,39.78
2022-12-23T23:46:37.573Z,34.47
2022-12-23T23:49:05.933Z,25.20
2022-12-23T23:51:35.551Z,37.27
2022-12-23T23:54:03.757Z,46.30
2022-12-23T23:56:37.826Z,35.42
2022-12-23T23:59:07.169Z,31.27
